sensor_id;sensor_type;location;lat;lon;timestamp;temperature;humidity
16966;DHT22;8599;47.852;12.070;2023-08-20T00:01:27;22.40;99.90
16966;DHT22;8599;47.852;12.070;2023-08-20T00:03:55;22.50;99.90
16966;DHT22;8599;47.852;12.070;2023-08-20T00:06:23;22.50;99.90
16966;DHT22;8599;47.852;12.070;2023-08-20T00:08:50;22.60;99.90
16966;DHT22;8599;47.852;12.070;2023-08-20T00:11:17;22.60;99.90
16966;DHT22;8599;47.852;12.070;2023-08-20T00:13:45;22.60;99.90
16966;DHT22;8599;47.852;12.070;2023-08-20T00:16:13;22.80;99.90
16966;DHT22;8599;47.852;12.070;2023-08-20T00:18:40;22.80;99.90
16966;DHT22;8599;47.852;12.070;2023-08-20T00:21:07;22.70;99.90
16966;DHT22;8599;47.852;12.070;2023-08-20T00:23:35;22.60;99.90
16966;DHT22;8599;47.852;12.070;2023-08-20T00:26:02;22.50;99.90
16966;DHT22;8599;47.852;12.070;2023-08-20T00:28:29;22.40;99.90
16966;DHT22;8599;47.852;12.070;2023-08-20T00:31:00;22.30;99.90
16966;DHT22;8599;47.852;12.070;2023-08-20T00:33:27;22.30;99.90
16966;DHT22;8599;47.852;12.070;2023-08-20T00:35:55;22.20;99.90
16966;DHT22;8599;47.852;12.070;2023-08-20T00:38:21;22.20;99.90
16966;DHT22;8599;47.852;12.070;2023-08-20T00:40:48;22.20;99.90
16966;DHT22;8599;47.852;12.070;2023-08-20T00:43:15;22.20;99.90
16966;DHT22;8599;47.852;12.070;2023-08-20T00:45:42;22.20;99.90
16966;DHT22;8599;47.852;12.070;2023-08-20T00:48:11;22.20;99.90
16966;DHT22;8599;47.852;12.070;2023-08-20T00:50:38;22.20;99.90
16966;DHT22;8599;47.852;12.070;2023-08-20T00:53:06;22.20;99.90
16966;DHT22;8599;47.852;12.070;2023-08-20T00:55:33;22.20;99.90
16966;DHT22;8599;47.852;12.070;2023-08-20T00:58:00;22.20;99.90
16966;DHT22;8599;47.852;12.070;2023-08-20T01:00:27;22.20;99.90
16966;DHT22;8599;47.852;12.070;2023-08-20T01:02:54;22.10;99.90
16966;DHT22;8599;47.852;12.070;2023-08-20T01:05:22;22.10;99.90
16966;DHT22;8599;47.852;12.070;2023-08-20T01:08:05;22.00;99.90
16966;DHT22;8599;47.852;12.070;2023-08-20T01:10:42;22.10;99.90
16966;DHT22;8599;47.852;12.070;2023-08-20T01:13:10;22.10;99.90
16966;DHT22;8599;47.852;12.070;2023-08-20T01:15:37;22.00;99.90
16966;DHT22;8599;47.852;12.070;2023-08-20T01:18:04;22.00;99.90
16966;DHT22;8599;47.852;12.070;2023-08-20T01:20:35;22.00;99.90
16966;DHT22;8599;47.852;12.070;2023-08-20T01:23:31;22.00;99.90
16966;DHT22;8599;47.852;12.070;2023-08-20T01:26:12;21.90;99.90
16966;DHT22;8599;47.852;12.070;2023-08-20T01:28:45;21.80;99.90
16966;DHT22;8599;47.852;12.070;2023-08-20T01:31:12;21.80;99.90
16966;DHT22;8599;47.852;12.070;2023-08-20T01:33:41;21.80;99.90
16966;DHT22;8599;47.852;12.070;2023-08-20T01:36:08;21.80;99.90
16966;DHT22;8599;47.852;12.070;2023-08-20T01:38:36;21.70;99.90
16966;DHT22;8599;47.852;12.070;2023-08-20T01:41:03;21.70;99.90
16966;DHT22;8599;47.852;12.070;2023-08-20T01:43:30;21.70;99.90
16966;DHT22;8599;47.852;12.070;2023-08-20T01:45:58;21.70;99.90
16966;DHT22;8599;47.852;12.070;2023-08-20T01:48:25;21.70;99.90
16966;DHT22;8599;47.852;12.070;2023-08-20T01:50:52;21.70;99.90
16966;DHT22;8599;47.852;12.070;2023-08-20T01:53:19;21.70;99.90
16966;DHT22;8599;47.852;12.070;2023-08-20T01:55:46;21.70;99.90
16966;DHT22;8599;47.852;12.070;2023-08-20T01:58:12;21.70;99.90
16966;DHT22;8599;47.852;12.070;2023-08-20T02:00:40;21.60;99.90
16966;DHT22;8599;47.852;12.070;2023-08-20T02:03:08;21.60;99.90
16966;DHT22;8599;47.852;12.070;2023-08-20T02:05:35;21.60;99.90
16966;DHT22;8599;47.852;12.070;2023-08-20T02:08:03;21.60;99.90
16966;DHT22;8599;47.852;12.070;2023-08-20T02:10:30;21.60;99.90
16966;DHT22;8599;47.852;12.070;2023-08-20T02:12:57;21.60;99.90
16966;DHT22;8599;47.852;12.070;2023-08-20T02:15:24;21.50;99.90
16966;DHT22;8599;47.852;12.070;2023-08-20T02:17:51;21.50;99.90
16966;DHT22;8599;47.852;12.070;2023-08-20T02:20:19;21.50;99.90
16966;DHT22;8599;47.852;12.070;2023-08-20T02:22:46;21.40;99.90
16966;DHT22;8599;47.852;12.070;2023-08-20T02:25:13;21.40;99.90
16966;DHT22;8599;47.852;12.070;2023-08-20T02:27:39;21.40;99.90
16966;DHT22;8599;47.852;12.070;2023-08-20T02:30:07;21.40;99.90
16966;DHT22;8599;47.852;12.070;2023-08-20T02:32:34;21.40;99.90
16966;DHT22;8599;47.852;12.070;2023-08-20T02:35:01;21.30;99.90
16966;DHT22;8599;47.852;12.070;2023-08-20T02:37:32;21.30;99.90
16966;DHT22;8599;47.852;12.070;2023-08-20T02:39:59;21.30;99.90
16966;DHT22;8599;47.852;12.070;2023-08-20T02:42:25;21.30;99.90
16966;DHT22;8599;47.852;12.070;2023-08-20T02:44:52;21.30;99.90
16966;DHT22;8599;47.852;12.070;2023-08-20T02:47:19;21.30;99.90
16966;DHT22;8599;47.852;12.070;2023-08-20T02:49:46;21.30;99.90
16966;DHT22;8599;47.852;12.070;2023-08-20T02:52:13;21.30;99.90
16966;DHT22;8599;47.852;12.070;2023-08-20T02:54:41;21.20;99.90
16966;DHT22;8599;47.852;12.070;2023-08-20T02:57:08;21.20;99.90
16966;DHT22;8599;47.852;12.070;2023-08-20T02:59:34;21.20;99.90
16966;DHT22;8599;47.852;12.070;2023-08-20T03:02:01;21.10;99.90
16966;DHT22;8599;47.852;12.070;2023-08-20T03:04:29;21.10;99.90
16966;DHT22;8599;47.852;12.070;2023-08-20T03:06:55;21.10;99.90
16966;DHT22;8599;47.852;12.070;2023-08-20T03:09:22;21.20;99.90
16966;DHT22;8599;47.852;12.070;2023-08-20T03:11:50;21.20;99.90
16966;DHT22;8599;47.852;12.070;2023-08-20T03:14:17;21.10;99.90
16966;DHT22;8599;47.852;12.070;2023-08-20T03:16:44;21.10;99.90
16966;DHT22;8599;47.852;12.070;2023-08-20T03:19:13;21.10;99.90
16966;DHT22;8599;47.852;12.070;2023-08-20T03:21:40;21.00;99.90
16966;DHT22;8599;47.852;12.070;2023-08-20T03:24:08;20.80;99.90
16966;DHT22;8599;47.852;12.070;2023-08-20T03:26:34;20.80;99.90
16966;DHT22;8599;47.852;12.070;2023-08-20T03:29:03;20.70;99.90
16966;DHT22;8599;47.852;12.070;2023-08-20T03:31:30;20.70;99.90
16966;DHT22;8599;47.852;12.070;2023-08-20T03:33:56;20.60;99.90
16966;DHT22;8599;47.852;12.070;2023-08-20T03:36:23;20.60;99.90
16966;DHT22;8599;47.852;12.070;2023-08-20T03:38:50;20.60;99.90
16966;DHT22;8599;47.852;12.070;2023-08-20T03:41:17;20.50;99.90
16966;DHT22;8599;47.852;12.070;2023-08-20T03:43:44;20.40;99.90
16966;DHT22;8599;47.852;12.070;2023-08-20T03:46:12;20.30;99.90
16966;DHT22;8599;47.852;12.070;2023-08-20T03:48:39;20.30;99.90
16966;DHT22;8599;47.852;12.070;2023-08-20T03:51:06;20.20;99.90
16966;DHT22;8599;47.852;12.070;2023-08-20T03:53:33;20.10;99.90
16966;DHT22;8599;47.852;12.070;2023-08-20T03:55:59;20.10;99.90
16966;DHT22;8599;47.852;12.070;2023-08-20T03:58:26;20.00;99.90
16966;DHT22;8599;47.852;12.070;2023-08-20T04:00:53;20.00;99.90
16966;DHT22;8599;47.852;12.070;2023-08-20T04:03:21;20.10;99.90
16966;DHT22;8599;47.852;12.070;2023-08-20T04:05:49;20.20;99.90
16966;DHT22;8599;47.852;12.070;2023-08-20T04:08:16;20.20;99.90
16966;DHT22;8599;47.852;12.070;2023-08-20T04:10:43;20.30;99.90
16966;DHT22;8599;47.852;12.070;2023-08-20T04:13:11;20.30;99.90
16966;DHT22;8599;47.852;12.070;2023-08-20T04:15:39;20.40;99.90
16966;DHT22;8599;47.852;12.070;2023-08-20T04:18:06;20.40;99.90
16966;DHT22;8599;47.852;12.070;2023-08-20T04:20:34;20.40;99.90
16966;DHT22;8599;47.852;12.070;2023-08-20T04:23:01;20.30;99.90
16966;DHT22;8599;47.852;12.070;2023-08-20T04:25:28;20.40;99.90
16966;DHT22;8599;47.852;12.070;2023-08-20T04:27:55;20.40;99.90
16966;DHT22;8599;47.852;12.070;2023-08-20T04:30:21;20.50;99.90
16966;DHT22;8599;47.852;12.070;2023-08-20T04:32:48;20.50;99.90
16966;DHT22;8599;47.852;12.070;2023-08-20T04:35:15;20.50;99.90
16966;DHT22;8599;47.852;12.070;2023-08-20T04:37:43;20.60;99.90
16966;DHT22;8599;47.852;12.070;2023-08-20T04:40:11;20.60;99.90
16966;DHT22;8599;47.852;12.070;2023-08-20T04:42:38;20.60;99.90
16966;DHT22;8599;47.852;12.070;2023-08-20T04:45:06;20.60;99.90
16966;DHT22;8599;47.852;12.070;2023-08-20T04:47:33;20.70;99.90
16966;DHT22;8599;47.852;12.070;2023-08-20T04:50:00;20.70;99.90
16966;DHT22;8599;47.852;12.070;2023-08-20T04:52:27;20.80;99.90
16966;DHT22;8599;47.852;12.070;2023-08-20T04:54:55;20.80;99.90
16966;DHT22;8599;47.852;12.070;2023-08-20T04:57:22;20.70;99.90
16966;DHT22;8599;47.852;12.070;2023-08-20T04:59:49;20.70;99.90
16966;DHT22;8599;47.852;12.070;2023-08-20T05:02:16;20.80;99.90
16966;DHT22;8599;47.852;12.070;2023-08-20T05:04:43;20.80;99.90
16966;DHT22;8599;47.852;12.070;2023-08-20T05:07:10;20.80;99.90
16966;DHT22;8599;47.852;12.070;2023-08-20T05:09:37;20.80;99.90
16966;DHT22;8599;47.852;12.070;2023-08-20T05:12:06;20.80;99.90
16966;DHT22;8599;47.852;12.070;2023-08-20T05:14:33;20.80;99.90
16966;DHT22;8599;47.852;12.070;2023-08-20T05:17:00;20.90;99.90
16966;DHT22;8599;47.852;12.070;2023-08-20T05:19:26;21.00;99.90
16966;DHT22;8599;47.852;12.070;2023-08-20T05:21:53;21.00;99.90
16966;DHT22;8599;47.852;12.070;2023-08-20T05:24:24;21.20;99.90
16966;DHT22;8599;47.852;12.070;2023-08-20T05:27:05;21.30;99.90
16966;DHT22;8599;47.852;12.070;2023-08-20T05:29:33;21.40;99.90
16966;DHT22;8599;47.852;12.070;2023-08-20T05:32:00;21.30;99.90
16966;DHT22;8599;47.852;12.070;2023-08-20T05:34:26;21.40;99.90
16966;DHT22;8599;47.852;12.070;2023-08-20T05:36:53;21.40;99.90
16966;DHT22;8599;47.852;12.070;2023-08-20T05:39:20;21.50;99.90
16966;DHT22;8599;47.852;12.070;2023-08-20T05:41:48;21.40;99.90
16966;DHT22;8599;47.852;12.070;2023-08-20T05:44:17;21.40;99.90
16966;DHT22;8599;47.852;12.070;2023-08-20T05:46:43;21.50;99.90
16966;DHT22;8599;47.852;12.070;2023-08-20T05:49:11;21.50;99.90
16966;DHT22;8599;47.852;12.070;2023-08-20T05:51:38;21.50;99.90
16966;DHT22;8599;47.852;12.070;2023-08-20T05:54:05;21.50;99.90
16966;DHT22;8599;47.852;12.070;2023-08-20T05:56:32;21.40;99.90
16966;DHT22;8599;47.852;12.070;2023-08-20T05:58:59;21.30;99.90
16966;DHT22;8599;47.852;12.070;2023-08-20T06:01:27;21.30;99.90
16966;DHT22;8599;47.852;12.070;2023-08-20T06:03:54;21.30;99.90
16966;DHT22;8599;47.852;12.070;2023-08-20T06:06:21;21.30;99.90
16966;DHT22;8599;47.852;12.070;2023-08-20T06:08:48;21.40;99.90
16966;DHT22;8599;47.852;12.070;2023-08-20T06:11:15;21.40;99.90
16966;DHT22;8599;47.852;12.070;2023-08-20T06:13:41;21.50;99.90
16966;DHT22;8599;47.852;12.070;2023-08-20T06:16:08;21.50;99.90
16966;DHT22;8599;47.852;12.070;2023-08-20T06:18:36;21.50;99.90
16966;DHT22;8599;47.852;12.070;2023-08-20T06:21:03;21.60;99.90
16966;DHT22;8599;47.852;12.070;2023-08-20T06:23:30;21.70;99.90
16966;DHT22;8599;47.852;12.070;2023-08-20T06:25:57;21.80;99.90
16966;DHT22;8599;47.852;12.070;2023-08-20T06:28:24;21.90;99.90
16966;DHT22;8599;47.852;12.070;2023-08-20T06:30:50;22.00;99.90
16966;DHT22;8599;47.852;12.070;2023-08-20T06:33:17;22.10;99.90
16966;DHT22;8599;47.852;12.070;2023-08-20T06:35:46;22.20;99.90
16966;DHT22;8599;47.852;12.070;2023-08-20T06:38:12;22.30;99.90
16966;DHT22;8599;47.852;12.070;2023-08-20T06:40:40;22.40;99.90
16966;DHT22;8599;47.852;12.070;2023-08-20T06:43:06;22.50;99.90
16966;DHT22;8599;47.852;12.070;2023-08-20T06:45:33;22.50;99.90
16966;DHT22;8599;47.852;12.070;2023-08-20T06:48:00;22.50;99.90
16966;DHT22;8599;47.852;12.070;2023-08-20T06:50:27;22.60;99.90
16966;DHT22;8599;47.852;12.070;2023-08-20T06:52:55;22.60;99.90
16966;DHT22;8599;47.852;12.070;2023-08-20T06:55:22;22.60;99.90
16966;DHT22;8599;47.852;12.070;2023-08-20T06:57:49;22.70;99.90
16966;DHT22;8599;47.852;12.070;2023-08-20T07:00:15;22.70;99.90
16966;DHT22;8599;47.852;12.070;2023-08-20T07:02:44;22.70;99.90
16966;DHT22;8599;47.852;12.070;2023-08-20T07:05:11;22.80;99.90
16966;DHT22;8599;47.852;12.070;2023-08-20T07:07:40;22.90;99.90
16966;DHT22;8599;47.852;12.070;2023-08-20T07:10:08;22.80;99.90
16966;DHT22;8599;47.852;12.070;2023-08-20T07:12:36;22.80;99.90
16966;DHT22;8599;47.852;12.070;2023-08-20T07:15:03;22.80;99.90
16966;DHT22;8599;47.852;12.070;2023-08-20T07:17:30;23.00;99.90
16966;DHT22;8599;47.852;12.070;2023-08-20T07:19:57;23.10;99.90
16966;DHT22;8599;47.852;12.070;2023-08-20T07:22:23;23.10;99.90
16966;DHT22;8599;47.852;12.070;2023-08-20T07:24:50;23.10;99.90
16966;DHT22;8599;47.852;12.070;2023-08-20T07:27:18;23.00;99.90
16966;DHT22;8599;47.852;12.070;2023-08-20T07:29:45;23.20;99.90
16966;DHT22;8599;47.852;12.070;2023-08-20T07:32:12;23.30;99.90
16966;DHT22;8599;47.852;12.070;2023-08-20T07:34:39;23.20;99.90
16966;DHT22;8599;47.852;12.070;2023-08-20T07:37:06;23.30;99.90
16966;DHT22;8599;47.852;12.070;2023-08-20T07:39:32;23.30;99.90
16966;DHT22;8599;47.852;12.070;2023-08-20T07:41:59;23.30;99.90
16966;DHT22;8599;47.852;12.070;2023-08-20T07:44:28;23.30;99.90
16966;DHT22;8599;47.852;12.070;2023-08-20T07:46:58;23.30;99.90
16966;DHT22;8599;47.852;12.070;2023-08-20T07:49:24;23.40;99.90
16966;DHT22;8599;47.852;12.070;2023-08-20T07:51:51;23.40;99.90
16966;DHT22;8599;47.852;12.070;2023-08-20T07:54:20;23.50;99.90
16966;DHT22;8599;47.852;12.070;2023-08-20T07:56:46;23.50;99.90
16966;DHT22;8599;47.852;12.070;2023-08-20T07:59:13;23.60;99.90
16966;DHT22;8599;47.852;12.070;2023-08-20T08:01:41;23.70;99.90
16966;DHT22;8599;47.852;12.070;2023-08-20T08:04:08;23.80;99.90
16966;DHT22;8599;47.852;12.070;2023-08-20T08:06:35;23.80;99.90
16966;DHT22;8599;47.852;12.070;2023-08-20T08:09:25;23.90;99.90
16966;DHT22;8599;47.852;12.070;2023-08-20T08:11:52;24.00;99.90
16966;DHT22;8599;47.852;12.070;2023-08-20T08:14:19;24.10;99.90
16966;DHT22;8599;47.852;12.070;2023-08-20T08:16:47;24.10;99.90
16966;DHT22;8599;47.852;12.070;2023-08-20T08:19:14;24.20;99.90
16966;DHT22;8599;47.852;12.070;2023-08-20T08:21:41;24.20;99.90
16966;DHT22;8599;47.852;12.070;2023-08-20T08:24:09;24.20;99.90
16966;DHT22;8599;47.852;12.070;2023-08-20T08:26:36;24.20;99.90
16966;DHT22;8599;47.852;12.070;2023-08-20T08:29:03;24.20;99.90
16966;DHT22;8599;47.852;12.070;2023-08-20T08:31:30;24.30;99.90
16966;DHT22;8599;47.852;12.070;2023-08-20T08:33:58;24.40;99.90
16966;DHT22;8599;47.852;12.070;2023-08-20T08:36:25;24.40;99.90
16966;DHT22;8599;47.852;12.070;2023-08-20T08:38:52;24.50;99.90
16966;DHT22;8599;47.852;12.070;2023-08-20T08:41:21;24.60;99.90
16966;DHT22;8599;47.852;12.070;2023-08-20T08:43:49;24.60;99.90
16966;DHT22;8599;47.852;12.070;2023-08-20T08:46:16;24.60;99.90
16966;DHT22;8599;47.852;12.070;2023-08-20T08:48:45;24.70;99.90
16966;DHT22;8599;47.852;12.070;2023-08-20T08:51:14;24.70;99.90
16966;DHT22;8599;47.852;12.070;2023-08-20T08:53:42;24.70;99.90
16966;DHT22;8599;47.852;12.070;2023-08-20T08:56:10;24.80;99.90
16966;DHT22;8599;47.852;12.070;2023-08-20T08:58:37;24.90;99.90
16966;DHT22;8599;47.852;12.070;2023-08-20T09:01:04;24.90;99.90
16966;DHT22;8599;47.852;12.070;2023-08-20T09:03:31;25.00;99.90
16966;DHT22;8599;47.852;12.070;2023-08-20T09:06:00;25.10;99.90
16966;DHT22;8599;47.852;12.070;2023-08-20T09:08:30;25.00;99.90
16966;DHT22;8599;47.852;12.070;2023-08-20T09:10:58;25.00;99.90
16966;DHT22;8599;47.852;12.070;2023-08-20T09:13:32;25.10;99.90
16966;DHT22;8599;47.852;12.070;2023-08-20T09:15:59;25.20;99.90
16966;DHT22;8599;47.852;12.070;2023-08-20T09:18:29;25.20;99.90
16966;DHT22;8599;47.852;12.070;2023-08-20T09:20:57;25.20;99.90
16966;DHT22;8599;47.852;12.070;2023-08-20T09:23:28;25.10;99.90
16966;DHT22;8599;47.852;12.070;2023-08-20T09:25:56;25.20;99.90
16966;DHT22;8599;47.852;12.070;2023-08-20T09:28:23;25.10;99.90
16966;DHT22;8599;47.852;12.070;2023-08-20T09:30:57;25.30;99.90
16966;DHT22;8599;47.852;12.070;2023-08-20T09:33:27;25.40;99.90
16966;DHT22;8599;47.852;12.070;2023-08-20T09:35:54;25.50;99.90
16966;DHT22;8599;47.852;12.070;2023-08-20T09:38:22;25.50;99.90
16966;DHT22;8599;47.852;12.070;2023-08-20T09:40:53;25.60;99.90
16966;DHT22;8599;47.852;12.070;2023-08-20T09:43:23;25.70;99.90
16966;DHT22;8599;47.852;12.070;2023-08-20T09:45:54;25.80;99.90
16966;DHT22;8599;47.852;12.070;2023-08-20T09:48:22;25.80;99.90
16966;DHT22;8599;47.852;12.070;2023-08-20T09:50:52;25.90;99.90
16966;DHT22;8599;47.852;12.070;2023-08-20T09:53:27;25.80;99.90
16966;DHT22;8599;47.852;12.070;2023-08-20T09:56:03;25.80;99.90
16966;DHT22;8599;47.852;12.070;2023-08-20T09:58:32;25.90;99.90
16966;DHT22;8599;47.852;12.070;2023-08-20T10:00:59;25.90;99.90
16966;DHT22;8599;47.852;12.070;2023-08-20T10:03:26;26.00;99.90
16966;DHT22;8599;47.852;12.070;2023-08-20T10:05:54;26.10;99.90
16966;DHT22;8599;47.852;12.070;2023-08-20T10:08:21;26.10;99.90
16966;DHT22;8599;47.852;12.070;2023-08-20T10:10:48;26.20;99.90
16966;DHT22;8599;47.852;12.070;2023-08-20T10:13:16;26.30;99.90
16966;DHT22;8599;47.852;12.070;2023-08-20T10:15:45;26.50;99.90
16966;DHT22;8599;47.852;12.070;2023-08-20T10:18:12;26.80;99.90
16966;DHT22;8599;47.852;12.070;2023-08-20T10:20:39;26.70;99.90
16966;DHT22;8599;47.852;12.070;2023-08-20T10:23:06;26.60;99.90
16966;DHT22;8599;47.852;12.070;2023-08-20T10:25:41;26.70;99.90
16966;DHT22;8599;47.852;12.070;2023-08-20T10:28:20;26.80;99.90
16966;DHT22;8599;47.852;12.070;2023-08-20T10:31:07;26.80;99.90
16966;DHT22;8599;47.852;12.070;2023-08-20T10:33:36;26.80;99.90
16966;DHT22;8599;47.852;12.070;2023-08-20T10:36:13;26.80;99.90
16966;DHT22;8599;47.852;12.070;2023-08-20T10:38:39;26.90;99.90
16966;DHT22;8599;47.852;12.070;2023-08-20T10:41:07;27.00;99.90
16966;DHT22;8599;47.852;12.070;2023-08-20T10:43:37;27.10;99.90
16966;DHT22;8599;47.852;12.070;2023-08-20T10:46:16;27.20;99.90
16966;DHT22;8599;47.852;12.070;2023-08-20T10:48:47;27.40;99.90
16966;DHT22;8599;47.852;12.070;2023-08-20T10:51:15;27.30;99.90
16966;DHT22;8599;47.852;12.070;2023-08-20T10:53:48;27.30;99.90
16966;DHT22;8599;47.852;12.070;2023-08-20T10:56:15;27.40;99.90
16966;DHT22;8599;47.852;12.070;2023-08-20T10:58:44;27.50;99.90
16966;DHT22;8599;47.852;12.070;2023-08-20T11:01:20;27.60;99.90
16966;DHT22;8599;47.852;12.070;2023-08-20T11:03:49;27.70;99.90
16966;DHT22;8599;47.852;12.070;2023-08-20T11:06:16;27.80;99.90
16966;DHT22;8599;47.852;12.070;2023-08-20T11:08:44;27.90;99.90
16966;DHT22;8599;47.852;12.070;2023-08-20T11:11:11;28.00;99.90
16966;DHT22;8599;47.852;12.070;2023-08-20T11:13:39;28.10;99.90
16966;DHT22;8599;47.852;12.070;2023-08-20T11:16:08;28.20;99.90
16966;DHT22;8599;47.852;12.070;2023-08-20T11:18:36;28.20;99.90
16966;DHT22;8599;47.852;12.070;2023-08-20T11:21:03;28.30;99.90
16966;DHT22;8599;47.852;12.070;2023-08-20T11:23:31;28.50;99.90
16966;DHT22;8599;47.852;12.070;2023-08-20T11:25:58;28.60;99.90
16966;DHT22;8599;47.852;12.070;2023-08-20T11:28:28;28.60;99.90
16966;DHT22;8599;47.852;12.070;2023-08-20T11:30:55;28.80;99.90
16966;DHT22;8599;47.852;12.070;2023-08-20T11:33:22;28.90;99.90
16966;DHT22;8599;47.852;12.070;2023-08-20T11:35:51;29.00;99.90
16966;DHT22;8599;47.852;12.070;2023-08-20T11:38:20;29.00;99.10
16966;DHT22;8599;47.852;12.070;2023-08-20T11:40:48;29.00;99.20
16966;DHT22;8599;47.852;12.070;2023-08-20T11:43:15;29.10;99.90
16966;DHT22;8599;47.852;12.070;2023-08-20T11:45:46;29.10;99.90
16966;DHT22;8599;47.852;12.070;2023-08-20T11:48:13;29.20;99.90
16966;DHT22;8599;47.852;12.070;2023-08-20T11:50:40;29.30;99.90
16966;DHT22;8599;47.852;12.070;2023-08-20T11:53:09;29.40;99.90
16966;DHT22;8599;47.852;12.070;2023-08-20T11:55:38;29.40;99.90
16966;DHT22;8599;47.852;12.070;2023-08-20T11:58:08;29.40;98.30
16966;DHT22;8599;47.852;12.070;2023-08-20T12:00:35;29.50;98.70
16966;DHT22;8599;47.852;12.070;2023-08-20T12:03:03;29.60;99.20
16966;DHT22;8599;47.852;12.070;2023-08-20T12:05:31;29.60;99.90
16966;DHT22;8599;47.852;12.070;2023-08-20T12:08:00;29.60;99.00
16966;DHT22;8599;47.852;12.070;2023-08-20T12:10:29;29.80;98.60
16966;DHT22;8599;47.852;12.070;2023-08-20T12:12:57;29.90;97.40
16966;DHT22;8599;47.852;12.070;2023-08-20T12:15:25;29.90;97.80
16966;DHT22;8599;47.852;12.070;2023-08-20T12:17:59;29.90;99.10
16966;DHT22;8599;47.852;12.070;2023-08-20T12:20:28;30.10;98.70
16966;DHT22;8599;47.852;12.070;2023-08-20T12:22:58;30.30;97.00
16966;DHT22;8599;47.852;12.070;2023-08-20T12:25:25;30.20;96.80
16966;DHT22;8599;47.852;12.070;2023-08-20T12:27:53;30.30;98.20
16966;DHT22;8599;47.852;12.070;2023-08-20T12:30:20;30.60;99.10
16966;DHT22;8599;47.852;12.070;2023-08-20T12:32:47;30.80;97.10
16966;DHT22;8599;47.852;12.070;2023-08-20T12:35:14;30.90;97.00
16966;DHT22;8599;47.852;12.070;2023-08-20T12:37:40;31.00;98.10
16966;DHT22;8599;47.852;12.070;2023-08-20T12:40:07;31.00;97.40
16966;DHT22;8599;47.852;12.070;2023-08-20T12:42:36;31.00;97.70
16966;DHT22;8599;47.852;12.070;2023-08-20T12:45:06;31.10;98.40
16966;DHT22;8599;47.852;12.070;2023-08-20T12:47:33;31.00;96.70
16966;DHT22;8599;47.852;12.070;2023-08-20T12:50:00;31.00;95.70
16966;DHT22;8599;47.852;12.070;2023-08-20T12:52:28;31.00;96.10
16966;DHT22;8599;47.852;12.070;2023-08-20T12:54:55;31.20;97.20
16966;DHT22;8599;47.852;12.070;2023-08-20T12:57:22;31.20;97.20
16966;DHT22;8599;47.852;12.070;2023-08-20T12:59:49;31.30;97.80
16966;DHT22;8599;47.852;12.070;2023-08-20T13:02:18;31.30;97.90
16966;DHT22;8599;47.852;12.070;2023-08-20T13:04:46;31.30;97.50
16966;DHT22;8599;47.852;12.070;2023-08-20T13:07:13;31.50;98.10
16966;DHT22;8599;47.852;12.070;2023-08-20T13:09:41;31.80;97.00
16966;DHT22;8599;47.852;12.070;2023-08-20T13:12:09;31.90;96.70
16966;DHT22;8599;47.852;12.070;2023-08-20T13:14:38;32.10;96.00
16966;DHT22;8599;47.852;12.070;2023-08-20T13:17:06;32.10;95.20
16966;DHT22;8599;47.852;12.070;2023-08-20T13:19:34;32.10;95.40
16966;DHT22;8599;47.852;12.070;2023-08-20T13:22:01;32.30;95.90
16966;DHT22;8599;47.852;12.070;2023-08-20T13:24:28;32.40;95.20
16966;DHT22;8599;47.852;12.070;2023-08-20T13:26:54;32.40;94.60
16966;DHT22;8599;47.852;12.070;2023-08-20T13:29:21;32.30;94.10
16966;DHT22;8599;47.852;12.070;2023-08-20T13:31:48;32.50;94.60
16966;DHT22;8599;47.852;12.070;2023-08-20T13:34:15;32.50;94.20
16966;DHT22;8599;47.852;12.070;2023-08-20T13:36:43;32.40;93.60
16966;DHT22;8599;47.852;12.070;2023-08-20T13:39:10;32.70;94.10
16966;DHT22;8599;47.852;12.070;2023-08-20T13:41:39;32.80;93.70
16966;DHT22;8599;47.852;12.070;2023-08-20T13:44:06;32.90;92.40
16966;DHT22;8599;47.852;12.070;2023-08-20T13:46:33;32.80;93.10
16966;DHT22;8599;47.852;12.070;2023-08-20T13:49:00;32.90;93.40
16966;DHT22;8599;47.852;12.070;2023-08-20T13:51:28;32.90;92.40
16966;DHT22;8599;47.852;12.070;2023-08-20T13:53:56;33.20;92.40
16966;DHT22;8599;47.852;12.070;2023-08-20T13:56:23;33.50;91.70
16966;DHT22;8599;47.852;12.070;2023-08-20T13:58:51;33.60;91.90
16966;DHT22;8599;47.852;12.070;2023-08-20T14:01:18;33.40;91.10
16966;DHT22;8599;47.852;12.070;2023-08-20T14:03:45;33.40;92.30
16966;DHT22;8599;47.852;12.070;2023-08-20T14:06:12;33.30;90.90
16966;DHT22;8599;47.852;12.070;2023-08-20T14:08:38;33.60;92.30
16966;DHT22;8599;47.852;12.070;2023-08-20T14:11:07;33.80;92.10
16966;DHT22;8599;47.852;12.070;2023-08-20T14:13:34;34.00;91.30
16966;DHT22;8599;47.852;12.070;2023-08-20T14:16:01;34.00;92.00
16966;DHT22;8599;47.852;12.070;2023-08-20T14:18:28;34.40;91.10
16966;DHT22;8599;47.852;12.070;2023-08-20T14:20:55;34.40;90.70
16966;DHT22;8599;47.852;12.070;2023-08-20T14:23:22;34.20;90.00
16966;DHT22;8599;47.852;12.070;2023-08-20T14:25:49;34.10;91.10
16966;DHT22;8599;47.852;12.070;2023-08-20T14:28:17;34.00;90.00
16966;DHT22;8599;47.852;12.070;2023-08-20T14:30:44;34.00;89.70
16966;DHT22;8599;47.852;12.070;2023-08-20T14:33:10;33.80;89.20
16966;DHT22;8599;47.852;12.070;2023-08-20T14:35:37;33.80;89.40
16966;DHT22;8599;47.852;12.070;2023-08-20T14:38:04;33.90;90.40
16966;DHT22;8599;47.852;12.070;2023-08-20T14:40:31;34.20;90.40
16966;DHT22;8599;47.852;12.070;2023-08-20T14:42:59;34.30;89.90
16966;DHT22;8599;47.852;12.070;2023-08-20T14:45:27;34.40;90.60
16966;DHT22;8599;47.852;12.070;2023-08-20T14:47:54;35.00;90.90
16966;DHT22;8599;47.852;12.070;2023-08-20T14:50:21;35.00;89.40
16966;DHT22;8599;47.852;12.070;2023-08-20T14:52:48;35.50;88.50
16966;DHT22;8599;47.852;12.070;2023-08-20T14:55:17;35.20;89.10
16966;DHT22;8599;47.852;12.070;2023-08-20T14:57:44;35.20;90.30
16966;DHT22;8599;47.852;12.070;2023-08-20T15:00:12;35.20;87.60
16966;DHT22;8599;47.852;12.070;2023-08-20T15:02:41;35.00;90.40
16966;DHT22;8599;47.852;12.070;2023-08-20T15:05:08;34.60;91.30
16966;DHT22;8599;47.852;12.070;2023-08-20T15:07:35;34.40;90.30
16966;DHT22;8599;47.852;12.070;2023-08-20T15:10:02;34.00;90.40
16966;DHT22;8599;47.852;12.070;2023-08-20T15:12:32;34.10;91.40
16966;DHT22;8599;47.852;12.070;2023-08-20T15:14:59;34.50;90.30
16966;DHT22;8599;47.852;12.070;2023-08-20T15:17:26;34.10;90.10
16966;DHT22;8599;47.852;12.070;2023-08-20T15:19:54;33.80;90.60
16966;DHT22;8599;47.852;12.070;2023-08-20T15:22:21;33.60;90.60
16966;DHT22;8599;47.852;12.070;2023-08-20T15:24:48;33.60;90.80
16966;DHT22;8599;47.852;12.070;2023-08-20T15:27:16;33.60;90.60
16966;DHT22;8599;47.852;12.070;2023-08-20T15:29:43;33.40;90.50
16966;DHT22;8599;47.852;12.070;2023-08-20T15:32:10;33.00;91.00
16966;DHT22;8599;47.852;12.070;2023-08-20T15:34:38;32.50;91.30